sensor_id;sensor_type;location;lat;lon;timestamp;temperature;humidity
38428;DHT22;24211;49.980;19.776;2022-12-07T00:48:00;4.80;99.90
38428;DHT22;24211;49.980;19.776;2022-12-07T01:55:25;4.90;99.90
38428;DHT22;24211;49.980;19.776;2022-12-07T02:08:42;4.90;99.90
38428;DHT22;24211;49.980;19.776;2022-12-07T02:31:46;4.90;99.90
38428;DHT22;24211;49.980;19.776;2022-12-07T02:37:48;4.90;99.90
38428;DHT22;24211;49.980;19.776;2022-12-07T02:40:29;4.90;99.90
38428;DHT22;24211;49.980;19.776;2022-12-07T02:46:37;4.90;99.90
38428;DHT22;24211;49.980;19.776;2022-12-07T02:49:09;4.90;99.90
38428;DHT22;24211;49.980;19.776;2022-12-07T02:51:41;4.90;99.90
38428;DHT22;24211;49.980;19.776;2022-12-07T02:54:21;4.90;99.90
38428;DHT22;24211;49.980;19.776;2022-12-07T03:40:23;5.00;99.90
38428;DHT22;24211;49.980;19.776;2022-12-07T03:42:55;5.00;99.90
38428;DHT22;24211;49.980;19.776;2022-12-07T03:45:44;5.00;99.90
38428;DHT22;24211;49.980;19.776;2022-12-07T03:48:56;5.00;99.90
38428;DHT22;24211;49.980;19.776;2022-12-07T03:54:18;5.00;99.90
38428;DHT22;24211;49.980;19.776;2022-12-07T03:56:52;5.00;99.90
38428;DHT22;24211;49.980;19.776;2022-12-07T03:59:21;5.00;99.90
38428;DHT22;24211;49.980;19.776;2022-12-07T04:01:55;5.00;99.90
38428;DHT22;24211;49.980;19.776;2022-12-07T04:04:24;5.00;99.90
38428;DHT22;24211;49.980;19.776;2022-12-07T04:06:52;5.00;99.90
38428;DHT22;24211;49.980;19.776;2022-12-07T04:09:20;5.00;99.90
38428;DHT22;24211;49.980;19.776;2022-12-07T04:11:49;5.00;99.90
38428;DHT22;24211;49.980;19.776;2022-12-07T04:14:17;5.00;99.90
38428;DHT22;24211;49.980;19.776;2022-12-07T04:16:53;5.00;99.90
38428;DHT22;24211;49.980;19.776;2022-12-07T04:19:32;5.00;99.90
38428;DHT22;24211;49.980;19.776;2022-12-07T04:22:03;4.90;99.90
38428;DHT22;24211;49.980;19.776;2022-12-07T04:24:31;5.00;99.90
38428;DHT22;24211;49.980;19.776;2022-12-07T04:26:59;4.90;99.90
38428;DHT22;24211;49.980;19.776;2022-12-07T04:29:29;5.00;99.90
38428;DHT22;24211;49.980;19.776;2022-12-07T04:47:53;5.00;99.90
38428;DHT22;24211;49.980;19.776;2022-12-07T04:50:28;4.90;99.90
38428;DHT22;24211;49.980;19.776;2022-12-07T05:39:43;4.60;99.90
38428;DHT22;24211;49.980;19.776;2022-12-07T05:45:35;4.50;99.90
38428;DHT22;24211;49.980;19.776;2022-12-07T05:53:49;4.50;99.90
38428;DHT22;24211;49.980;19.776;2022-12-07T05:57:01;4.50;99.90
38428;DHT22;24211;49.980;19.776;2022-12-07T05:59:29;4.40;99.90
38428;DHT22;24211;49.980;19.776;2022-12-07T06:01:57;4.30;99.90
38428;DHT22;24211;49.980;19.776;2022-12-07T06:04:29;4.30;99.90
38428;DHT22;24211;49.980;19.776;2022-12-07T06:12:41;4.30;99.90
38428;DHT22;24211;49.980;19.776;2022-12-07T06:15:10;4.30;99.90
38428;DHT22;24211;49.980;19.776;2022-12-07T06:17:39;4.30;99.90
38428;DHT22;24211;49.980;19.776;2022-12-07T06:20:08;4.20;99.90
38428;DHT22;24211;49.980;19.776;2022-12-07T06:22:44;4.20;99.90
38428;DHT22;24211;49.980;19.776;2022-12-07T06:25:11;4.20;99.90
38428;DHT22;24211;49.980;19.776;2022-12-07T06:27:38;4.10;99.90
38428;DHT22;24211;49.980;19.776;2022-12-07T06:30:09;4.20;99.90
38428;DHT22;24211;49.980;19.776;2022-12-07T06:37:52;4.30;99.90
38428;DHT22;24211;49.980;19.776;2022-12-07T06:40:19;4.20;99.90
38428;DHT22;24211;49.980;19.776;2022-12-07T06:42:46;4.30;99.90
38428;DHT22;24211;49.980;19.776;2022-12-07T06:45:13;4.30;99.90
38428;DHT22;24211;49.980;19.776;2022-12-07T06:47:41;4.30;99.90
38428;DHT22;24211;49.980;19.776;2022-12-07T06:50:09;4.30;99.90
38428;DHT22;24211;49.980;19.776;2022-12-07T06:52:36;4.30;99.90
38428;DHT22;24211;49.980;19.776;2022-12-07T06:55:13;4.30;99.90
38428;DHT22;24211;49.980;19.776;2022-12-07T06:57:41;4.30;99.90
38428;DHT22;24211;49.980;19.776;2022-12-07T07:18:50;4.20;99.90
38428;DHT22;24211;49.980;19.776;2022-12-07T07:21:18;4.20;99.90
38428;DHT22;24211;49.980;19.776;2022-12-07T07:23:51;4.30;99.90
38428;DHT22;24211;49.980;19.776;2022-12-07T07:26:19;4.20;99.90
38428;DHT22;24211;49.980;19.776;2022-12-07T07:28:57;4.20;99.90
38428;DHT22;24211;49.980;19.776;2022-12-07T07:31:24;4.20;99.90
38428;DHT22;24211;49.980;19.776;2022-12-07T07:33:52;4.20;99.90
38428;DHT22;24211;49.980;19.776;2022-12-07T07:38:02;4.20;99.90
38428;DHT22;24211;49.980;19.776;2022-12-07T07:40:32;4.20;99.90
38428;DHT22;24211;49.980;19.776;2022-12-07T07:43:00;4.20;99.90
38428;DHT22;24211;49.980;19.776;2022-12-07T07:53:25;4.20;99.90
38428;DHT22;24211;49.980;19.776;2022-12-07T07:55:53;4.10;99.90
38428;DHT22;24211;49.980;19.776;2022-12-07T07:58:21;4.10;99.90
38428;DHT22;24211;49.980;19.776;2022-12-07T08:00:49;4.10;99.90
38428;DHT22;24211;49.980;19.776;2022-12-07T08:03:19;4.00;99.90
38428;DHT22;24211;49.980;19.776;2022-12-07T08:05:46;4.00;99.90
38428;DHT22;24211;49.980;19.776;2022-12-07T08:08:13;4.10;99.90
38428;DHT22;24211;49.980;19.776;2022-12-07T08:10:40;4.10;99.90
38428;DHT22;24211;49.980;19.776;2022-12-07T08:13:08;4.10;99.90
38428;DHT22;24211;49.980;19.776;2022-12-07T08:15:39;4.10;99.90
38428;DHT22;24211;49.980;19.776;2022-12-07T08:18:09;4.10;99.90
38428;DHT22;24211;49.980;19.776;2022-12-07T08:20:42;4.20;99.90
38428;DHT22;24211;49.980;19.776;2022-12-07T08:23:10;4.20;99.90
38428;DHT22;24211;49.980;19.776;2022-12-07T08:25:39;4.20;99.90
38428;DHT22;24211;49.980;19.776;2022-12-07T08:28:06;4.20;99.90
38428;DHT22;24211;49.980;19.776;2022-12-07T08:30:34;4.20;99.90
38428;DHT22;24211;49.980;19.776;2022-12-07T08:33:01;4.20;99.90
38428;DHT22;24211;49.980;19.776;2022-12-07T08:35:28;4.20;99.90
38428;DHT22;24211;49.980;19.776;2022-12-07T08:37:55;4.30;99.90
38428;DHT22;24211;49.980;19.776;2022-12-07T08:40:24;4.30;99.90
38428;DHT22;24211;49.980;19.776;2022-12-07T08:42:52;4.30;99.90
38428;DHT22;24211;49.980;19.776;2022-12-07T08:45:20;4.30;99.90
38428;DHT22;24211;49.980;19.776;2022-12-07T08:48:06;4.30;99.90
38428;DHT22;24211;49.980;19.776;2022-12-07T08:50:37;4.20;99.90
38428;DHT22;24211;49.980;19.776;2022-12-07T08:53:10;4.20;99.90
38428;DHT22;24211;49.980;19.776;2022-12-07T08:55:37;4.30;99.90
38428;DHT22;24211;49.980;19.776;2022-12-07T08:58:04;4.30;99.90
38428;DHT22;24211;49.980;19.776;2022-12-07T09:00:31;4.30;99.90
38428;DHT22;24211;49.980;19.776;2022-12-07T09:02:58;4.30;99.90
38428;DHT22;24211;49.980;19.776;2022-12-07T09:05:26;4.30;99.90
38428;DHT22;24211;49.980;19.776;2022-12-07T09:07:56;4.30;99.90
38428;DHT22;24211;49.980;19.776;2022-12-07T09:10:27;4.30;99.90
38428;DHT22;24211;49.980;19.776;2022-12-07T09:12:58;4.30;99.90
38428;DHT22;24211;49.980;19.776;2022-12-07T09:46:01;4.70;99.90
38428;DHT22;24211;49.980;19.776;2022-12-07T09:48:32;4.70;99.90
38428;DHT22;24211;49.980;19.776;2022-12-07T10:01:40;4.70;99.90
38428;DHT22;24211;49.980;19.776;2022-12-07T10:24:45;4.90;99.90
38428;DHT22;24211;49.980;19.776;2022-12-07T10:47:44;4.90;99.90
38428;DHT22;24211;49.980;19.776;2022-12-07T10:56:24;5.00;99.90
38428;DHT22;24211;49.980;19.776;2022-12-07T10:59:42;5.00;99.90
38428;DHT22;24211;49.980;19.776;2022-12-07T12:42:01;6.10;99.90
38428;DHT22;24211;49.980;19.776;2022-12-07T12:46:57;5.90;99.90
38428;DHT22;24211;49.980;19.776;2022-12-07T13:13:04;5.80;99.90
38428;DHT22;24211;49.980;19.776;2022-12-07T13:18:23;5.80;99.90
38428;DHT22;24211;49.980;19.776;2022-12-07T14:10:05;5.90;99.90
38428;DHT22;24211;49.980;19.776;2022-12-07T14:12:36;5.90;99.90
38428;DHT22;24211;49.980;19.776;2022-12-07T14:15:04;5.80;99.90
38428;DHT22;24211;49.980;19.776;2022-12-07T14:17:32;5.80;99.90
38428;DHT22;24211;49.980;19.776;2022-12-07T14:20:02;5.70;99.90
38428;DHT22;24211;49.980;19.776;2022-12-07T14:22:36;5.70;99.90
38428;DHT22;24211;49.980;19.776;2022-12-07T14:25:18;5.70;99.90
38428;DHT22;24211;49.980;19.776;2022-12-07T14:27:50;5.60;99.90
38428;DHT22;24211;49.980;19.776;2022-12-07T14:30:30;5.50;99.90
38428;DHT22;24211;49.980;19.776;2022-12-07T14:33:02;5.50;99.90
38428;DHT22;24211;49.980;19.776;2022-12-07T14:35:32;5.50;99.90
38428;DHT22;24211;49.980;19.776;2022-12-07T14:37:59;5.40;99.90
38428;DHT22;24211;49.980;19.776;2022-12-07T14:40:28;5.50;99.90
38428;DHT22;24211;49.980;19.776;2022-12-07T14:43:10;5.40;99.90
38428;DHT22;24211;49.980;19.776;2022-12-07T14:45:40;5.50;99.90
38428;DHT22;24211;49.980;19.776;2022-12-07T14:48:12;5.50;99.90
38428;DHT22;24211;49.980;19.776;2022-12-07T14:51:04;5.50;99.90
38428;DHT22;24211;49.980;19.776;2022-12-07T14:53:53;5.50;99.90
38428;DHT22;24211;49.980;19.776;2022-12-07T14:56:24;5.50;99.90
38428;DHT22;24211;49.980;19.776;2022-12-07T14:58:51;5.50;99.90
38428;DHT22;24211;49.980;19.776;2022-12-07T15:01:19;5.50;99.90
38428;DHT22;24211;49.980;19.776;2022-12-07T15:03:46;5.50;99.90
38428;DHT22;24211;49.980;19.776;2022-12-07T15:06:16;5.60;99.90
38428;DHT22;24211;49.980;19.776;2022-12-07T15:08:44;5.60;99.90
38428;DHT22;24211;49.980;19.776;2022-12-07T15:11:14;5.60;99.90
38428;DHT22;24211;49.980;19.776;2022-12-07T15:13:42;5.60;99.90
38428;DHT22;24211;49.980;19.776;2022-12-07T15:16:28;5.50;99.90
38428;DHT22;24211;49.980;19.776;2022-12-07T16:29:41;5.20;99.90
38428;DHT22;24211;49.980;19.776;2022-12-07T16:34:03;5.10;99.90
38428;DHT22;24211;49.980;19.776;2022-12-07T16:36:37;5.10;99.90
38428;DHT22;24211;49.980;19.776;2022-12-07T16:39:25;5.10;99.90
38428;DHT22;24211;49.980;19.776;2022-12-07T16:41:52;5.00;99.90
38428;DHT22;24211;49.980;19.776;2022-12-07T16:44:19;5.00;99.90
38428;DHT22;24211;49.980;19.776;2022-12-07T16:46:47;5.00;99.90
38428;DHT22;24211;49.980;19.776;2022-12-07T16:49:15;5.00;99.90
38428;DHT22;24211;49.980;19.776;2022-12-07T16:51:42;5.00;99.90
38428;DHT22;24211;49.980;19.776;2022-12-07T16:54:11;5.00;99.90
38428;DHT22;24211;49.980;19.776;2022-12-07T16:56:39;5.10;99.90
38428;DHT22;24211;49.980;19.776;2022-12-07T16:59:07;5.00;99.90
38428;DHT22;24211;49.980;19.776;2022-12-07T17:01:35;5.00;99.90
38428;DHT22;24211;49.980;19.776;2022-12-07T17:04:02;5.00;99.90
38428;DHT22;24211;49.980;19.776;2022-12-07T17:06:31;4.90;99.90
38428;DHT22;24211;49.980;19.776;2022-12-07T17:08:58;4.90;99.90
38428;DHT22;24211;49.980;19.776;2022-12-07T17:11:29;5.00;99.90
38428;DHT22;24211;49.980;19.776;2022-12-07T17:14:00;4.90;99.90
38428;DHT22;24211;49.980;19.776;2022-12-07T17:16:48;4.90;99.90
38428;DHT22;24211;49.980;19.776;2022-12-07T17:19:16;4.80;99.90
38428;DHT22;24211;49.980;19.776;2022-12-07T17:21:43;4.80;99.90
38428;DHT22;24211;49.980;19.776;2022-12-07T17:24:13;4.80;99.90
38428;DHT22;24211;49.980;19.776;2022-12-07T17:26:44;4.80;99.90
38428;DHT22;24211;49.980;19.776;2022-12-07T17:29:14;4.80;99.90
38428;DHT22;24211;49.980;19.776;2022-12-07T17:31:44;4.70;99.90
38428;DHT22;24211;49.980;19.776;2022-12-07T17:34:18;4.70;99.90
38428;DHT22;24211;49.980;19.776;2022-12-07T17:36:46;4.70;99.90
38428;DHT22;24211;49.980;19.776;2022-12-07T17:39:16;4.70;99.90
38428;DHT22;24211;49.980;19.776;2022-12-07T17:41:45;4.70;99.90
38428;DHT22;24211;49.980;19.776;2022-12-07T17:44:31;4.60;99.90
38428;DHT22;24211;49.980;19.776;2022-12-07T17:46:58;4.60;99.90
38428;DHT22;24211;49.980;19.776;2022-12-07T17:49:28;4.60;99.90
38428;DHT22;24211;49.980;19.776;2022-12-07T17:51:56;4.60;99.90
38428;DHT22;24211;49.980;19.776;2022-12-07T17:54:42;4.60;99.90
38428;DHT22;24211;49.980;19.776;2022-12-07T17:57:10;4.50;99.90
38428;DHT22;24211;49.980;19.776;2022-12-07T17:59:37;4.50;99.90
38428;DHT22;24211;49.980;19.776;2022-12-07T18:02:05;4.50;99.90
38428;DHT22;24211;49.980;19.776;2022-12-07T18:04:32;4.60;99.90
38428;DHT22;24211;49.980;19.776;2022-12-07T18:07:00;4.50;99.90
38428;DHT22;24211;49.980;19.776;2022-12-07T18:09:27;4.60;99.90
38428;DHT22;24211;49.980;19.776;2022-12-07T18:11:54;4.60;99.90
38428;DHT22;24211;49.980;19.776;2022-12-07T18:14:21;4.60;99.90
38428;DHT22;24211;49.980;19.776;2022-12-07T18:16:48;4.60;99.90
38428;DHT22;24211;49.980;19.776;2022-12-07T18:19:16;4.60;99.90
38428;DHT22;24211;49.980;19.776;2022-12-07T18:21:44;4.60;99.90
38428;DHT22;24211;49.980;19.776;2022-12-07T18:24:13;4.60;99.90
38428;DHT22;24211;49.980;19.776;2022-12-07T18:26:43;4.60;99.90
38428;DHT22;24211;49.980;19.776;2022-12-07T18:29:15;4.60;99.90
38428;DHT22;24211;49.980;19.776;2022-12-07T18:31:45;4.60;99.90
38428;DHT22;24211;49.980;19.776;2022-12-07T18:34:15;4.60;99.90
38428;DHT22;24211;49.980;19.776;2022-12-07T18:36:45;4.60;99.90
38428;DHT22;24211;49.980;19.776;2022-12-07T18:39:17;4.60;99.90
38428;DHT22;24211;49.980;19.776;2022-12-07T18:41:46;4.60;99.90
38428;DHT22;24211;49.980;19.776;2022-12-07T18:44:15;4.60;99.90
38428;DHT22;24211;49.980;19.776;2022-12-07T18:46:43;4.70;99.90
38428;DHT22;24211;49.980;19.776;2022-12-07T18:49:11;4.70;99.90
38428;DHT22;24211;49.980;19.776;2022-12-07T18:51:40;4.70;99.90
38428;DHT22;24211;49.980;19.776;2022-12-07T18:54:08;4.70;99.90
38428;DHT22;24211;49.980;19.776;2022-12-07T18:56:35;4.70;99.90
38428;DHT22;24211;49.980;19.776;2022-12-07T18:59:03;4.70;99.90
38428;DHT22;24211;49.980;19.776;2022-12-07T19:01:52;4.70;99.90
38428;DHT22;24211;49.980;19.776;2022-12-07T19:04:21;4.60;99.90
38428;DHT22;24211;49.980;19.776;2022-12-07T19:06:49;4.70;99.90
38428;DHT22;24211;49.980;19.776;2022-12-07T19:09:18;4.60;99.90
38428;DHT22;24211;49.980;19.776;2022-12-07T19:11:46;4.60;99.90
38428;DHT22;24211;49.980;19.776;2022-12-07T19:14:33;4.70;99.90
38428;DHT22;24211;49.980;19.776;2022-12-07T19:17:08;4.70;99.90
38428;DHT22;24211;49.980;19.776;2022-12-07T19:38:22;4.70;99.90
38428;DHT22;24211;49.980;19.776;2022-12-07T19:40:49;4.70;99.90
38428;DHT22;24211;49.980;19.776;2022-12-07T19:43:16;4.70;99.90
38428;DHT22;24211;49.980;19.776;2022-12-07T19:45:43;4.70;99.90
38428;DHT22;24211;49.980;19.776;2022-12-07T19:48:11;4.70;99.90
38428;DHT22;24211;49.980;19.776;2022-12-07T19:50:38;4.60;99.90
38428;DHT22;24211;49.980;19.776;2022-12-07T19:53:05;4.60;99.90
38428;DHT22;24211;49.980;19.776;2022-12-07T19:55:38;4.60;99.90
38428;DHT22;24211;49.980;19.776;2022-12-07T19:58:06;4.60;99.90
38428;DHT22;24211;49.980;19.776;2022-12-07T20:00:33;4.60;99.90
38428;DHT22;24211;49.980;19.776;2022-12-07T20:03:02;4.60;99.90
38428;DHT22;24211;49.980;19.776;2022-12-07T20:05:29;4.60;99.90
38428;DHT22;24211;49.980;19.776;2022-12-07T20:07:56;4.60;99.90
38428;DHT22;24211;49.980;19.776;2022-12-07T20:10:23;4.60;99.90
38428;DHT22;24211;49.980;19.776;2022-12-07T20:12:52;4.60;99.90
38428;DHT22;24211;49.980;19.776;2022-12-07T20:15:38;4.60;99.90
38428;DHT22;24211;49.980;19.776;2022-12-07T20:18:05;4.60;99.90
38428;DHT22;24211;49.980;19.776;2022-12-07T20:26:04;4.70;99.90
38428;DHT22;24211;49.980;19.776;2022-12-07T20:28:49;4.70;99.90
38428;DHT22;24211;49.980;19.776;2022-12-07T20:31:17;4.70;99.90
38428;DHT22;24211;49.980;19.776;2022-12-07T20:33:44;4.70;99.90
38428;DHT22;24211;49.980;19.776;2022-12-07T20:36:16;4.70;99.90
38428;DHT22;24211;49.980;19.776;2022-12-07T20:54:40;4.80;99.90
38428;DHT22;24211;49.980;19.776;2022-12-07T20:57:11;4.80;99.90
38428;DHT22;24211;49.980;19.776;2022-12-07T21:10:31;4.90;99.90
38428;DHT22;24211;49.980;19.776;2022-12-07T21:30:34;4.80;99.90
38428;DHT22;24211;49.980;19.776;2022-12-07T21:34:23;4.80;99.90
38428;DHT22;24211;49.980;19.776;2022-12-07T21:36:50;4.80;99.90
38428;DHT22;24211;49.980;19.776;2022-12-07T21:39:17;4.80;99.90
38428;DHT22;24211;49.980;19.776;2022-12-07T21:41:44;4.80;99.90
